sensor_id;sensor_type;location;lat;lon;timestamp;temperature;humidity
76613;DHT22;65507;48.454;-2.058;2023-04-03T00:02:04;8.90;76.70
76613;DHT22;65507;48.454;-2.058;2023-04-03T00:04:30;8.80;76.80
76613;DHT22;65507;48.454;-2.058;2023-04-03T00:06:55;8.80;76.90
76613;DHT22;65507;48.454;-2.058;2023-04-03T00:09:21;8.70;77.00
76613;DHT22;65507;48.454;-2.058;2023-04-03T00:11:46;8.70;77.00
76613;DHT22;65507;48.454;-2.058;2023-04-03T00:14:12;8.60;77.10
76613;DHT22;65507;48.454;-2.058;2023-04-03T00:16:37;8.60;77.10
76613;DHT22;65507;48.454;-2.058;2023-04-03T00:19:03;8.50;77.10
76613;DHT22;65507;48.454;-2.058;2023-04-03T00:21:29;8.50;77.10
76613;DHT22;65507;48.454;-2.058;2023-04-03T00:23:54;8.50;77.20
76613;DHT22;65507;48.454;-2.058;2023-04-03T00:26:20;8.40;77.20
76613;DHT22;65507;48.454;-2.058;2023-04-03T00:28:46;8.40;77.30
76613;DHT22;65507;48.454;-2.058;2023-04-03T00:31:13;8.30;77.30
76613;DHT22;65507;48.454;-2.058;2023-04-03T00:33:39;8.30;77.30
76613;DHT22;65507;48.454;-2.058;2023-04-03T00:36:05;8.30;77.40
76613;DHT22;65507;48.454;-2.058;2023-04-03T00:38:31;8.20;77.30
76613;DHT22;65507;48.454;-2.058;2023-04-03T00:40:57;8.20;77.40
76613;DHT22;65507;48.454;-2.058;2023-04-03T00:43:23;8.20;77.40
76613;DHT22;65507;48.454;-2.058;2023-04-03T00:45:50;8.20;77.40
76613;DHT22;65507;48.454;-2.058;2023-04-03T00:50:47;8.10;77.40
76613;DHT22;65507;48.454;-2.058;2023-04-03T00:53:17;8.10;77.40
76613;DHT22;65507;48.454;-2.058;2023-04-03T00:55:43;8.10;77.40
76613;DHT22;65507;48.454;-2.058;2023-04-03T00:58:09;8.00;77.30
76613;DHT22;65507;48.454;-2.058;2023-04-03T01:00:35;8.00;77.30
76613;DHT22;65507;48.454;-2.058;2023-04-03T01:03:02;8.00;77.40
76613;DHT22;65507;48.454;-2.058;2023-04-03T01:05:28;7.90;77.50
76613;DHT22;65507;48.454;-2.058;2023-04-03T01:07:53;7.90;77.50
76613;DHT22;65507;48.454;-2.058;2023-04-03T01:10:19;7.90;77.60
76613;DHT22;65507;48.454;-2.058;2023-04-03T01:12:46;7.80;77.60
76613;DHT22;65507;48.454;-2.058;2023-04-03T01:17:39;7.80;77.70
76613;DHT22;65507;48.454;-2.058;2023-04-03T01:25:21;7.70;77.60
76613;DHT22;65507;48.454;-2.058;2023-04-03T01:27:47;7.70;77.60
76613;DHT22;65507;48.454;-2.058;2023-04-03T01:30:12;7.70;77.70
76613;DHT22;65507;48.454;-2.058;2023-04-03T01:32:39;7.70;77.60
76613;DHT22;65507;48.454;-2.058;2023-04-03T01:35:06;7.70;77.60
76613;DHT22;65507;48.454;-2.058;2023-04-03T01:37:32;7.80;77.50
76613;DHT22;65507;48.454;-2.058;2023-04-03T01:39:57;7.80;77.40
76613;DHT22;65507;48.454;-2.058;2023-04-03T01:42:23;7.80;77.30
76613;DHT22;65507;48.454;-2.058;2023-04-03T01:44:49;7.80;77.20
76613;DHT22;65507;48.454;-2.058;2023-04-03T01:47:14;7.80;77.20
76613;DHT22;65507;48.454;-2.058;2023-04-03T01:49:40;7.80;77.30
76613;DHT22;65507;48.454;-2.058;2023-04-03T01:52:05;7.80;77.30
76613;DHT22;65507;48.454;-2.058;2023-04-03T01:54:31;7.90;77.30
76613;DHT22;65507;48.454;-2.058;2023-04-03T01:56:56;7.90;77.20
76613;DHT22;65507;48.454;-2.058;2023-04-03T01:59:22;7.90;77.20
76613;DHT22;65507;48.454;-2.058;2023-04-03T02:01:47;7.90;77.20
76613;DHT22;65507;48.454;-2.058;2023-04-03T02:04:13;7.90;77.10
76613;DHT22;65507;48.454;-2.058;2023-04-03T02:06:38;7.90;77.10
76613;DHT22;65507;48.454;-2.058;2023-04-03T02:09:04;7.90;77.10
76613;DHT22;65507;48.454;-2.058;2023-04-03T02:11:30;7.90;77.10
76613;DHT22;65507;48.454;-2.058;2023-04-03T02:13:56;7.90;77.10
76613;DHT22;65507;48.454;-2.058;2023-04-03T02:16:21;7.90;77.10
76613;DHT22;65507;48.454;-2.058;2023-04-03T02:18:47;7.90;77.20
76613;DHT22;65507;48.454;-2.058;2023-04-03T02:21:13;7.90;77.10
76613;DHT22;65507;48.454;-2.058;2023-04-03T02:23:38;7.90;77.10
76613;DHT22;65507;48.454;-2.058;2023-04-03T02:26:05;8.00;77.10
76613;DHT22;65507;48.454;-2.058;2023-04-03T02:28:31;8.00;77.00
76613;DHT22;65507;48.454;-2.058;2023-04-03T02:30:56;8.00;76.90
76613;DHT22;65507;48.454;-2.058;2023-04-03T02:33:22;8.00;76.90
76613;DHT22;65507;48.454;-2.058;2023-04-03T02:35:51;8.00;77.00
76613;DHT22;65507;48.454;-2.058;2023-04-03T02:38:18;9.10;77.50
76613;DHT22;65507;48.454;-2.058;2023-04-03T02:40:44;8.10;77.00
76613;DHT22;65507;48.454;-2.058;2023-04-03T02:43:09;8.10;77.00
76613;DHT22;65507;48.454;-2.058;2023-04-03T02:45:35;8.10;76.90
76613;DHT22;65507;48.454;-2.058;2023-04-03T02:48:01;8.10;76.90
76613;DHT22;65507;48.454;-2.058;2023-04-03T02:50:26;8.10;76.80
76613;DHT22;65507;48.454;-2.058;2023-04-03T02:52:52;8.10;76.80
76613;DHT22;65507;48.454;-2.058;2023-04-03T02:55:17;8.10;76.80
76613;DHT22;65507;48.454;-2.058;2023-04-03T02:57:43;8.10;76.80
76613;DHT22;65507;48.454;-2.058;2023-04-03T03:00:08;8.00;76.90
76613;DHT22;65507;48.454;-2.058;2023-04-03T03:02:35;8.00;76.90
76613;DHT22;65507;48.454;-2.058;2023-04-03T03:05:00;8.00;77.00
76613;DHT22;65507;48.454;-2.058;2023-04-03T03:07:26;8.00;76.90
76613;DHT22;65507;48.454;-2.058;2023-04-03T03:09:52;8.00;76.90
76613;DHT22;65507;48.454;-2.058;2023-04-03T03:12:17;8.10;76.90
76613;DHT22;65507;48.454;-2.058;2023-04-03T03:14:47;8.10;76.80
76613;DHT22;65507;48.454;-2.058;2023-04-03T03:17:13;8.10;76.80
76613;DHT22;65507;48.454;-2.058;2023-04-03T03:19:38;8.10;76.80
76613;DHT22;65507;48.454;-2.058;2023-04-03T03:22:07;8.10;76.80
76613;DHT22;65507;48.454;-2.058;2023-04-03T03:24:32;8.10;76.80
76613;DHT22;65507;48.454;-2.058;2023-04-03T03:26:58;8.20;76.70
76613;DHT22;65507;48.454;-2.058;2023-04-03T03:29:23;8.20;76.70
76613;DHT22;65507;48.454;-2.058;2023-04-03T03:31:49;8.20;76.60
76613;DHT22;65507;48.454;-2.058;2023-04-03T03:34:15;8.20;76.50
76613;DHT22;65507;48.454;-2.058;2023-04-03T03:36:40;8.30;76.50
76613;DHT22;65507;48.454;-2.058;2023-04-03T03:39:06;8.30;76.50
76613;DHT22;65507;48.454;-2.058;2023-04-03T03:41:35;8.30;76.50
76613;DHT22;65507;48.454;-2.058;2023-04-03T03:44:00;8.40;76.50
76613;DHT22;65507;48.454;-2.058;2023-04-03T03:46:26;8.40;76.50
76613;DHT22;65507;48.454;-2.058;2023-04-03T03:48:51;8.40;76.50
76613;DHT22;65507;48.454;-2.058;2023-04-03T03:51:17;8.40;76.50
76613;DHT22;65507;48.454;-2.058;2023-04-03T03:53:42;8.40;76.50
76613;DHT22;65507;48.454;-2.058;2023-04-03T03:56:09;8.40;76.50
76613;DHT22;65507;48.454;-2.058;2023-04-03T03:58:35;8.40;76.50
76613;DHT22;65507;48.454;-2.058;2023-04-03T04:01:03;8.40;76.60
76613;DHT22;65507;48.454;-2.058;2023-04-03T04:03:30;8.40;76.60
76613;DHT22;65507;48.454;-2.058;2023-04-03T04:05:56;8.40;76.70
76613;DHT22;65507;48.454;-2.058;2023-04-03T04:08:22;8.40;76.60
76613;DHT22;65507;48.454;-2.058;2023-04-03T04:10:48;8.40;76.60
76613;DHT22;65507;48.454;-2.058;2023-04-03T04:13:13;8.40;76.70
76613;DHT22;65507;48.454;-2.058;2023-04-03T04:15:39;8.30;76.70
76613;DHT22;65507;48.454;-2.058;2023-04-03T04:18:04;8.30;76.80
76613;DHT22;65507;48.454;-2.058;2023-04-03T04:20:30;8.30;76.90
76613;DHT22;65507;48.454;-2.058;2023-04-03T04:22:55;8.30;76.90
76613;DHT22;65507;48.454;-2.058;2023-04-03T04:25:21;8.30;76.90
76613;DHT22;65507;48.454;-2.058;2023-04-03T04:27:46;8.30;76.90
76613;DHT22;65507;48.454;-2.058;2023-04-03T04:30:12;8.30;76.90
76613;DHT22;65507;48.454;-2.058;2023-04-03T04:32:38;8.30;76.80
76613;DHT22;65507;48.454;-2.058;2023-04-03T04:35:04;8.30;76.80
76613;DHT22;65507;48.454;-2.058;2023-04-03T04:37:30;8.30;76.90
76613;DHT22;65507;48.454;-2.058;2023-04-03T04:39:55;8.30;76.90
76613;DHT22;65507;48.454;-2.058;2023-04-03T04:42:21;8.20;76.90
76613;DHT22;65507;48.454;-2.058;2023-04-03T04:44:46;8.20;76.90
76613;DHT22;65507;48.454;-2.058;2023-04-03T04:47:12;8.20;77.00
76613;DHT22;65507;48.454;-2.058;2023-04-03T04:49:37;8.10;77.00
76613;DHT22;65507;48.454;-2.058;2023-04-03T04:52:03;8.10;77.10
76613;DHT22;65507;48.454;-2.058;2023-04-03T04:54:29;8.00;77.20
76613;DHT22;65507;48.454;-2.058;2023-04-03T04:56:54;8.00;77.30
76613;DHT22;65507;48.454;-2.058;2023-04-03T04:59:20;8.00;77.30
76613;DHT22;65507;48.454;-2.058;2023-04-03T05:01:45;7.90;77.20
76613;DHT22;65507;48.454;-2.058;2023-04-03T05:04:11;7.90;77.20
76613;DHT22;65507;48.454;-2.058;2023-04-03T05:06:38;7.90;77.30
76613;DHT22;65507;48.454;-2.058;2023-04-03T05:09:03;7.90;77.30
76613;DHT22;65507;48.454;-2.058;2023-04-03T05:11:29;7.80;77.20
76613;DHT22;65507;48.454;-2.058;2023-04-03T05:13:55;7.80;78.10
76613;DHT22;65507;48.454;-2.058;2023-04-03T05:16:20;7.80;77.20
76613;DHT22;65507;48.454;-2.058;2023-04-03T05:18:46;7.80;77.20
76613;DHT22;65507;48.454;-2.058;2023-04-03T05:21:12;7.80;77.30
76613;DHT22;65507;48.454;-2.058;2023-04-03T05:23:37;7.70;77.20
76613;DHT22;65507;48.454;-2.058;2023-04-03T05:26:03;7.70;77.60
76613;DHT22;65507;48.454;-2.058;2023-04-03T05:28:29;7.70;77.20
76613;DHT22;65507;48.454;-2.058;2023-04-03T05:30:55;7.70;77.10
76613;DHT22;65507;48.454;-2.058;2023-04-03T05:33:21;7.60;77.20
76613;DHT22;65507;48.454;-2.058;2023-04-03T05:35:47;7.60;77.40
76613;DHT22;65507;48.454;-2.058;2023-04-03T05:38:12;7.60;78.20
76613;DHT22;65507;48.454;-2.058;2023-04-03T05:40:38;7.50;77.30
76613;DHT22;65507;48.454;-2.058;2023-04-03T05:43:03;7.50;77.30
76613;DHT22;65507;48.454;-2.058;2023-04-03T05:45:29;7.60;77.30
76613;DHT22;65507;48.454;-2.058;2023-04-03T05:47:55;7.60;77.10
76613;DHT22;65507;48.454;-2.058;2023-04-03T05:50:21;7.60;77.10
76613;DHT22;65507;48.454;-2.058;2023-04-03T05:52:47;7.60;77.20
76613;DHT22;65507;48.454;-2.058;2023-04-03T05:55:13;7.60;77.20
76613;DHT22;65507;48.454;-2.058;2023-04-03T05:57:39;7.60;77.20
76613;DHT22;65507;48.454;-2.058;2023-04-03T06:00:05;7.60;77.20
76613;DHT22;65507;48.454;-2.058;2023-04-03T06:02:31;7.60;77.10
76613;DHT22;65507;48.454;-2.058;2023-04-03T06:04:57;7.60;77.30
76613;DHT22;65507;48.454;-2.058;2023-04-03T06:07:23;7.50;77.10
76613;DHT22;65507;48.454;-2.058;2023-04-03T06:09:50;7.50;77.30
76613;DHT22;65507;48.454;-2.058;2023-04-03T06:12:16;7.50;77.10
76613;DHT22;65507;48.454;-2.058;2023-04-03T06:14:42;9.30;78.00
76613;DHT22;65507;48.454;-2.058;2023-04-03T06:17:08;7.50;77.00
76613;DHT22;65507;48.454;-2.058;2023-04-03T06:19:34;7.50;77.00
76613;DHT22;65507;48.454;-2.058;2023-04-03T06:22:00;7.50;77.10
76613;DHT22;65507;48.454;-2.058;2023-04-03T06:24:26;7.50;77.10
76613;DHT22;65507;48.454;-2.058;2023-04-03T06:26:52;7.50;77.10
76613;DHT22;65507;48.454;-2.058;2023-04-03T06:29:18;7.40;77.00
76613;DHT22;65507;48.454;-2.058;2023-04-03T06:31:44;7.40;77.00
76613;DHT22;65507;48.454;-2.058;2023-04-03T06:34:09;7.40;77.00
76613;DHT22;65507;48.454;-2.058;2023-04-03T06:36:36;7.30;77.00
76613;DHT22;65507;48.454;-2.058;2023-04-03T06:39:02;7.30;77.00
76613;DHT22;65507;48.454;-2.058;2023-04-03T06:41:28;7.30;77.00
76613;DHT22;65507;48.454;-2.058;2023-04-03T06:43:54;7.30;77.00
76613;DHT22;65507;48.454;-2.058;2023-04-03T06:46:21;7.30;76.90
76613;DHT22;65507;48.454;-2.058;2023-04-03T06:48:47;7.30;76.90
76613;DHT22;65507;48.454;-2.058;2023-04-03T06:51:23;7.30;76.90
76613;DHT22;65507;48.454;-2.058;2023-04-03T06:53:50;7.30;76.80
76613;DHT22;65507;48.454;-2.058;2023-04-03T06:56:16;7.30;76.80
76613;DHT22;65507;48.454;-2.058;2023-04-03T06:58:42;7.20;76.80
76613;DHT22;65507;48.454;-2.058;2023-04-03T07:01:09;7.20;76.70
76613;DHT22;65507;48.454;-2.058;2023-04-03T07:03:36;7.20;76.70
76613;DHT22;65507;48.454;-2.058;2023-04-03T07:06:04;7.20;76.80
76613;DHT22;65507;48.454;-2.058;2023-04-03T07:08:31;7.20;76.80
76613;DHT22;65507;48.454;-2.058;2023-04-03T07:10:59;7.20;76.80
76613;DHT22;65507;48.454;-2.058;2023-04-03T07:13:26;7.20;76.70
76613;DHT22;65507;48.454;-2.058;2023-04-03T07:15:55;7.20;76.60
76613;DHT22;65507;48.454;-2.058;2023-04-03T07:18:23;7.20;76.50
76613;DHT22;65507;48.454;-2.058;2023-04-03T07:20:51;7.10;76.50
76613;DHT22;65507;48.454;-2.058;2023-04-03T07:23:18;7.10;76.60
76613;DHT22;65507;48.454;-2.058;2023-04-03T07:25:45;7.10;76.60
76613;DHT22;65507;48.454;-2.058;2023-04-03T07:28:12;7.10;76.50
76613;DHT22;65507;48.454;-2.058;2023-04-03T07:30:42;7.00;76.40
76613;DHT22;65507;48.454;-2.058;2023-04-03T07:33:08;7.00;76.40
76613;DHT22;65507;48.454;-2.058;2023-04-03T07:35:33;6.90;76.40
76613;DHT22;65507;48.454;-2.058;2023-04-03T07:37:59;6.90;76.40
76613;DHT22;65507;48.454;-2.058;2023-04-03T07:40:26;6.90;76.20
76613;DHT22;65507;48.454;-2.058;2023-04-03T07:42:52;7.00;76.30
76613;DHT22;65507;48.454;-2.058;2023-04-03T07:45:17;7.00;76.20
76613;DHT22;65507;48.454;-2.058;2023-04-03T07:47:44;7.00;76.10
76613;DHT22;65507;48.454;-2.058;2023-04-03T07:50:10;7.00;76.00
76613;DHT22;65507;48.454;-2.058;2023-04-03T07:52:36;7.10;76.40
76613;DHT22;65507;48.454;-2.058;2023-04-03T07:55:01;7.10;75.80
76613;DHT22;65507;48.454;-2.058;2023-04-03T07:57:27;7.20;75.70
76613;DHT22;65507;48.454;-2.058;2023-04-03T07:59:52;7.20;75.50
76613;DHT22;65507;48.454;-2.058;2023-04-03T08:02:18;7.30;75.50
76613;DHT22;65507;48.454;-2.058;2023-04-03T08:04:44;7.30;75.40
76613;DHT22;65507;48.454;-2.058;2023-04-03T08:07:09;7.30;75.50
76613;DHT22;65507;48.454;-2.058;2023-04-03T08:09:35;7.40;75.30
76613;DHT22;65507;48.454;-2.058;2023-04-03T08:12:00;7.40;75.30
76613;DHT22;65507;48.454;-2.058;2023-04-03T08:14:26;7.30;75.40
76613;DHT22;65507;48.454;-2.058;2023-04-03T08:16:52;7.40;75.50
76613;DHT22;65507;48.454;-2.058;2023-04-03T08:19:17;7.40;75.50
76613;DHT22;65507;48.454;-2.058;2023-04-03T08:21:43;7.40;75.50
76613;DHT22;65507;48.454;-2.058;2023-04-03T08:24:09;7.40;75.60
76613;DHT22;65507;48.454;-2.058;2023-04-03T08:26:35;7.40;75.50
76613;DHT22;65507;48.454;-2.058;2023-04-03T08:29:01;7.40;75.40
76613;DHT22;65507;48.454;-2.058;2023-04-03T08:31:27;7.40;75.30
76613;DHT22;65507;48.454;-2.058;2023-04-03T08:33:53;7.40;75.20
76613;DHT22;65507;48.454;-2.058;2023-04-03T08:36:19;7.30;75.20
76613;DHT22;65507;48.454;-2.058;2023-04-03T08:38:46;7.30;75.40
76613;DHT22;65507;48.454;-2.058;2023-04-03T08:46:38;7.40;75.00
76613;DHT22;65507;48.454;-2.058;2023-04-03T08:49:12;7.40;74.80
76613;DHT22;65507;48.454;-2.058;2023-04-03T08:51:38;7.40;74.70
76613;DHT22;65507;48.454;-2.058;2023-04-03T08:54:06;7.50;74.70
76613;DHT22;65507;48.454;-2.058;2023-04-03T08:56:39;7.60;74.50
76613;DHT22;65507;48.454;-2.058;2023-04-03T08:59:13;7.60;74.20
76613;DHT22;65507;48.454;-2.058;2023-04-03T09:01:43;7.80;74.20
76613;DHT22;65507;48.454;-2.058;2023-04-03T09:04:10;7.90;74.00
76613;DHT22;65507;48.454;-2.058;2023-04-03T09:06:37;8.10;73.80
76613;DHT22;65507;48.454;-2.058;2023-04-03T09:11:44;8.30;73.60
76613;DHT22;65507;48.454;-2.058;2023-04-03T09:14:15;8.30;73.50
76613;DHT22;65507;48.454;-2.058;2023-04-03T09:16:56;8.30;73.60
76613;DHT22;65507;48.454;-2.058;2023-04-03T09:21:58;8.40;73.50
76613;DHT22;65507;48.454;-2.058;2023-04-03T09:24:25;8.50;73.50
76613;DHT22;65507;48.454;-2.058;2023-04-03T09:26:53;8.60;73.20
76613;DHT22;65507;48.454;-2.058;2023-04-03T09:29:22;8.70;73.10
76613;DHT22;65507;48.454;-2.058;2023-04-03T09:31:50;8.90;73.00
76613;DHT22;65507;48.454;-2.058;2023-04-03T09:36:49;9.20;72.20
76613;DHT22;65507;48.454;-2.058;2023-04-03T09:39:16;9.30;72.30
76613;DHT22;65507;48.454;-2.058;2023-04-03T09:41:43;9.40;72.10
76613;DHT22;65507;48.454;-2.058;2023-04-03T09:44:20;9.60;71.80
76613;DHT22;65507;48.454;-2.058;2023-04-03T09:46:46;9.60;71.70
76613;DHT22;65507;48.454;-2.058;2023-04-03T09:49:12;9.70;71.90
76613;DHT22;65507;48.454;-2.058;2023-04-03T09:51:38;9.70;72.00
76613;DHT22;65507;48.454;-2.058;2023-04-03T09:56:51;9.60;72.40
76613;DHT22;65507;48.454;-2.058;2023-04-03T09:59:18;9.70;72.60
76613;DHT22;65507;48.454;-2.058;2023-04-03T10:01:56;9.70;72.50
76613;DHT22;65507;48.454;-2.058;2023-04-03T10:04:22;9.80;72.80
76613;DHT22;65507;48.454;-2.058;2023-04-03T10:06:50;9.90;72.60
76613;DHT22;65507;48.454;-2.058;2023-04-03T10:09:34;10.10;72.40
76613;DHT22;65507;48.454;-2.058;2023-04-03T10:12:00;10.30;72.00
76613;DHT22;65507;48.454;-2.058;2023-04-03T10:14:27;10.50;71.60
76613;DHT22;65507;48.454;-2.058;2023-04-03T10:19:41;10.80;71.00
76613;DHT22;65507;48.454;-2.058;2023-04-03T10:22:30;10.80;70.80
76613;DHT22;65507;48.454;-2.058;2023-04-03T10:25:04;10.80;71.20
76613;DHT22;65507;48.454;-2.058;2023-04-03T10:40:36;10.50;71.90
76613;DHT22;65507;48.454;-2.058;2023-04-03T10:51:16;10.80;71.80
76613;DHT22;65507;48.454;-2.058;2023-04-03T10:53:55;10.80;71.80
76613;DHT22;65507;48.454;-2.058;2023-04-03T10:56:29;10.90;71.60
76613;DHT22;65507;48.454;-2.058;2023-04-03T10:59:45;10.90;71.50
76613;DHT22;65507;48.454;-2.058;2023-04-03T11:01:45;11.00;71.50
76613;DHT22;65507;48.454;-2.058;2023-04-03T11:04:11;11.10;71.40
76613;DHT22;65507;48.454;-2.058;2023-04-03T11:06:40;11.20;71.60
76613;DHT22;65507;48.454;-2.058;2023-04-03T11:09:11;11.30;71.50
76613;DHT22;65507;48.454;-2.058;2023-04-03T11:11:45;11.30;71.30
76613;DHT22;65507;48.454;-2.058;2023-04-03T11:16:50;11.50;71.40
76613;DHT22;65507;48.454;-2.058;2023-04-03T11:19:22;11.60;71.30
76613;DHT22;65507;48.454;-2.058;2023-04-03T11:24:20;11.70;71.10
76613;DHT22;65507;48.454;-2.058;2023-04-03T11:26:47;11.70;71.20
76613;DHT22;65507;48.454;-2.058;2023-04-03T11:29:14;11.70;70.70
76613;DHT22;65507;48.454;-2.058;2023-04-03T11:34:15;11.60;70.70
76613;DHT22;65507;48.454;-2.058;2023-04-03T11:36:53;11.40;71.20
76613;DHT22;65507;48.454;-2.058;2023-04-03T11:39:44;11.50;72.20
76613;DHT22;65507;48.454;-2.058;2023-04-03T11:42:28;11.60;71.10
76613;DHT22;65507;48.454;-2.058;2023-04-03T11:50:45;11.80;70.40
76613;DHT22;65507;48.454;-2.058;2023-04-03T11:53:09;11.80;70.50
76613;DHT22;65507;48.454;-2.058;2023-04-03T12:05:48;12.30;69.70
76613;DHT22;65507;48.454;-2.058;2023-04-03T12:13:40;12.60;69.50
76613;DHT22;65507;48.454;-2.058;2023-04-03T12:21:20;12.80;69.50
76613;DHT22;65507;48.454;-2.058;2023-04-03T12:26:26;12.80;69.30
76613;DHT22;65507;48.454;-2.058;2023-04-03T12:28:52;12.90;69.20
76613;DHT22;65507;48.454;-2.058;2023-04-03T12:31:19;12.90;69.40
76613;DHT22;65507;48.454;-2.058;2023-04-03T12:36:36;12.90;69.20
76613;DHT22;65507;48.454;-2.058;2023-04-03T12:39:16;12.90;69.40
76613;DHT22;65507;48.454;-2.058;2023-04-03T12:46:58;13.10;69.30
76613;DHT22;65507;48.454;-2.058;2023-04-03T12:49:31;13.10;69.20
76613;DHT22;65507;48.454;-2.058;2023-04-03T12:51:58;13.20;69.00
76613;DHT22;65507;48.454;-2.058;2023-04-03T12:54:31;13.30;68.70
76613;DHT22;65507;48.454;-2.058;2023-04-03T12:57:11;13.40;68.70
76613;DHT22;65507;48.454;-2.058;2023-04-03T12:59:37;13.50;68.80
76613;DHT22;65507;48.454;-2.058;2023-04-03T13:02:09;13.50;68.80
76613;DHT22;65507;48.454;-2.058;2023-04-03T13:04:38;13.40;68.10
76613;DHT22;65507;48.454;-2.058;2023-04-03T13:07:04;13.40;68.40
76613;DHT22;65507;48.454;-2.058;2023-04-03T13:09:30;13.40;68.40
76613;DHT22;65507;48.454;-2.058;2023-04-03T13:12:03;13.40;68.30
76613;DHT22;65507;48.454;-2.058;2023-04-03T13:14:29;13.40;68.60
76613;DHT22;65507;48.454;-2.058;2023-04-03T13:16:57;13.40;68.60
76613;DHT22;65507;48.454;-2.058;2023-04-03T13:19:24;13.40;68.50
76613;DHT22;65507;48.454;-2.058;2023-04-03T13:21:50;13.50;68.20
76613;DHT22;65507;48.454;-2.058;2023-04-03T13:24:19;13.50;67.80
76613;DHT22;65507;48.454;-2.058;2023-04-03T13:26:44;13.40;67.90
76613;DHT22;65507;48.454;-2.058;2023-04-03T13:31:54;13.20;68.50
76613;DHT22;65507;48.454;-2.058;2023-04-03T13:34:22;13.40;68.30
76613;DHT22;65507;48.454;-2.058;2023-04-03T13:41:45;13.70;67.70
76613;DHT22;65507;48.454;-2.058;2023-04-03T13:44:15;13.90;68.30
76613;DHT22;65507;48.454;-2.058;2023-04-03T13:46:41;14.00;67.20
76613;DHT22;65507;48.454;-2.058;2023-04-03T13:51:44;14.10;67.20
76613;DHT22;65507;48.454;-2.058;2023-04-03T13:54:15;14.20;67.10
76613;DHT22;65507;48.454;-2.058;2023-04-03T13:56:43;14.20;66.90
76613;DHT22;65507;48.454;-2.058;2023-04-03T14:01:42;14.20;67.00
76613;DHT22;65507;48.454;-2.058;2023-04-03T14:04:18;14.20;67.20
76613;DHT22;65507;48.454;-2.058;2023-04-03T14:06:44;14.30;67.00
76613;DHT22;65507;48.454;-2.058;2023-04-03T14:09:11;14.30;66.80
76613;DHT22;65507;48.454;-2.058;2023-04-03T14:11:37;14.30;66.80
76613;DHT22;65507;48.454;-2.058;2023-04-03T14:14:09;14.30;66.80
76613;DHT22;65507;48.454;-2.058;2023-04-03T14:16:37;14.30;66.50
76613;DHT22;65507;48.454;-2.058;2023-04-03T14:19:03;14.30;66.50
76613;DHT22;65507;48.454;-2.058;2023-04-03T14:21:29;14.30;66.90
76613;DHT22;65507;48.454;-2.058;2023-04-03T14:23:54;14.40;66.80
76613;DHT22;65507;48.454;-2.058;2023-04-03T14:26:21;14.40;66.30
76613;DHT22;65507;48.454;-2.058;2023-04-03T14:28:48;14.30;66.20
76613;DHT22;65507;48.454;-2.058;2023-04-03T14:31:14;14.30;66.40
76613;DHT22;65507;48.454;-2.058;2023-04-03T14:33:41;14.30;66.20
76613;DHT22;65507;48.454;-2.058;2023-04-03T14:36:25;14.10;66.10
76613;DHT22;65507;48.454;-2.058;2023-04-03T14:38:52;14.10;66.40
76613;DHT22;65507;48.454;-2.058;2023-04-03T14:41:19;14.10;66.40
76613;DHT22;65507;48.454;-2.058;2023-04-03T14:43:46;14.20;66.40
76613;DHT22;65507;48.454;-2.058;2023-04-03T14:46:16;14.20;66.30
76613;DHT22;65507;48.454;-2.058;2023-04-03T14:48:43;14.20;66.10
76613;DHT22;65507;48.454;-2.058;2023-04-03T14:51:10;14.10;66.00
76613;DHT22;65507;48.454;-2.058;2023-04-03T14:53:36;14.10;65.80
76613;DHT22;65507;48.454;-2.058;2023-04-03T14:56:04;14.10;66.00
76613;DHT22;65507;48.454;-2.058;2023-04-03T14:58:30;14.10;65.70
76613;DHT22;65507;48.454;-2.058;2023-04-03T15:00:57;14.10;65.80
76613;DHT22;65507;48.454;-2.058;2023-04-03T15:03:22;14.10;66.20
76613;DHT22;65507;48.454;-2.058;2023-04-03T15:05:49;14.20;66.00
76613;DHT22;65507;48.454;-2.058;2023-04-03T15:08:25;14.20;66.20
76613;DHT22;65507;48.454;-2.058;2023-04-03T15:10:51;14.30;65.90
76613;DHT22;65507;48.454;-2.058;2023-04-03T15:13:22;14.30;65.60
76613;DHT22;65507;48.454;-2.058;2023-04-03T15:15:48;14.20;65.50
76613;DHT22;65507;48.454;-2.058;2023-04-03T15:18:15;14.00;65.90
76613;DHT22;65507;48.454;-2.058;2023-04-03T15:20:42;14.10;66.00
76613;DHT22;65507;48.454;-2.058;2023-04-03T15:23:08;14.00;66.60
76613;DHT22;65507;48.454;-2.058;2023-04-03T15:25:34;14.10;65.80
76613;DHT22;65507;48.454;-2.058;2023-04-03T15:28:00;14.10;65.50
76613;DHT22;65507;48.454;-2.058;2023-04-03T15:30:25;14.00;65.30
76613;DHT22;65507;48.454;-2.058;2023-04-03T15:32:51;14.00;65.60
76613;DHT22;65507;48.454;-2.058;2023-04-03T15:35:16;14.30;65.60
76613;DHT22;65507;48.454;-2.058;2023-04-03T15:37:42;13.80;65.20
76613;DHT22;65507;48.454;-2.058;2023-04-03T15:40:08;13.90;65.60
76613;DHT22;65507;48.454;-2.058;2023-04-03T15:42:34;13.90;65.20
76613;DHT22;65507;48.454;-2.058;2023-04-03T15:44:59;13.80;65.40
76613;DHT22;65507;48.454;-2.058;2023-04-03T15:47:25;13.80;65.00
76613;DHT22;65507;48.454;-2.058;2023-04-03T15:49:51;13.70;64.90
76613;DHT22;65507;48.454;-2.058;2023-04-03T15:52:18;13.60;65.30
76613;DHT22;65507;48.454;-2.058;2023-04-03T15:54:43;13.60;65.30
76613;DHT22;65507;48.454;-2.058;2023-04-03T15:57:09;13.70;65.20
76613;DHT22;65507;48.454;-2.058;2023-04-03T15:59:35;13.80;65.20
76613;DHT22;65507;48.454;-2.058;2023-04-03T16:02:00;13.80;64.80
76613;DHT22;65507;48.454;-2.058;2023-04-03T16:04:27;13.80;64.50
76613;DHT22;65507;48.454;-2.058;2023-04-03T16:06:52;13.70;64.60
76613;DHT22;65507;48.454;-2.058;2023-04-03T16:09:18;13.70;64.50
76613;DHT22;65507;48.454;-2.058;2023-04-03T16:11:44;13.70;64.60
76613;DHT22;65507;48.454;-2.058;2023-04-03T16:14:09;13.70;64.50
76613;DHT22;65507;48.454;-2.058;2023-04-03T16:16:35;13.70;64.60
76613;DHT22;65507;48.454;-2.058;2023-04-03T16:19:02;13.70;64.70
76613;DHT22;65507;48.454;-2.058;2023-04-03T16:21:27;13.80;64.30
76613;DHT22;65507;48.454;-2.058;2023-04-03T16:23:53;13.80;64.40
76613;DHT22;65507;48.454;-2.058;2023-04-03T16:26:19;13.80;64.50
76613;DHT22;65507;48.454;-2.058;2023-04-03T16:28:45;13.80;64.50
76613;DHT22;65507;48.454;-2.058;2023-04-03T16:31:11;13.80;64.40
76613;DHT22;65507;48.454;-2.058;2023-04-03T16:33:36;12.20;63.70
76613;DHT22;65507;48.454;-2.058;2023-04-03T16:36:05;13.80;64.50
76613;DHT22;65507;48.454;-2.058;2023-04-03T16:38:31;13.90;64.50
76613;DHT22;65507;48.454;-2.058;2023-04-03T16:40:56;13.90;64.40
76613;DHT22;65507;48.454;-2.058;2023-04-03T16:43:25;13.90;64.50
76613;DHT22;65507;48.454;-2.058;2023-04-03T16:45:50;13.80;64.40
76613;DHT22;65507;48.454;-2.058;2023-04-03T16:48:16;13.80;64.70
76613;DHT22;65507;48.454;-2.058;2023-04-03T16:50:41;13.80;64.70
76613;DHT22;65507;48.454;-2.058;2023-04-03T16:53:07;13.80;64.80
76613;DHT22;65507;48.454;-2.058;2023-04-03T16:55:35;13.70;65.70
76613;DHT22;65507;48.454;-2.058;2023-04-03T16:58:00;13.70;65.00
76613;DHT22;65507;48.454;-2.058;2023-04-03T17:00:27;13.60;65.10
76613;DHT22;65507;48.454;-2.058;2023-04-03T17:02:53;13.60;65.10
76613;DHT22;65507;48.454;-2.058;2023-04-03T17:05:18;13.60;65.40
76613;DHT22;65507;48.454;-2.058;2023-04-03T17:07:44;13.50;65.20
76613;DHT22;65507;48.454;-2.058;2023-04-03T17:10:10;13.50;65.20
76613;DHT22;65507;48.454;-2.058;2023-04-03T17:12:36;13.30;65.20